Time;durP1;ratioP1;P1;durP2;ratioP2;P2;SDS_P1;SDS_P2;PMS_P1;PMS_P2;Temp;Humidity;BMP_temperature;BMP_pressure;BME280_temperature;BME280_humidity;BME280_pressure;Samples;Min_cycle;Max_cycle;Signal;HPM_P1;HPM_P2
2022/11/20 00:00:09;;;;;;;15.95;8.27;;;-1.70;99.90;;;;;;5058533;28;20372;-43
2022/11/20 00:02:35;;;;;;;16.05;7.70;;;-1.70;99.90;;;;;;5060344;28;20508;-45
2022/11/20 00:05:01;;;;;;;15.10;8.05;;;-1.70;99.90;;;;;;5054570;28;20044;-42
2022/11/20 00:07:26;;;;;;;15.98;7.88;;;-1.70;99.90;;;;;;5062183;28;20044;-43
2022/11/20 00:09:52;;;;;;;14.13;7.78;;;-1.70;99.90;;;;;;5049421;28;20048;-47
2022/11/20 00:12:18;;;;;;;14.60;7.68;;;-1.70;99.90;;;;;;5053486;28;20041;-43
2022/11/20 00:14:43;;;;;;;16.15;6.90;;;-1.70;99.90;;;;;;5052011;28;20040;-40
2022/11/20 00:17:09;;;;;;;15.23;7.65;;;-1.60;99.90;;;;;;5052838;28;20032;-42
2022/11/20 00:19:34;;;;;;;16.33;7.63;;;-1.70;99.90;;;;;;5053599;28;20655;-41
2022/11/20 00:22:00;;;;;;;13.40;7.70;;;-1.70;99.90;;;;;;5058588;28;20072;-41
2022/11/20 00:24:25;;;;;;;13.98;6.90;;;-1.70;99.90;;;;;;5042559;28;20042;-43
2022/11/20 00:26:51;;;;;;;14.70;7.72;;;-1.80;99.90;;;;;;5060083;28;20406;-40
2022/11/20 00:29:17;;;;;;;14.70;7.20;;;-1.80;99.90;;;;;;5053526;28;20051;-42
2022/11/20 00:31:42;;;;;;;12.13;5.68;;;-1.80;99.90;;;;;;5066109;28;20036;-45
2022/11/20 00:34:09;;;;;;;14.70;6.97;;;-1.90;99.90;;;;;;5062759;28;20590;-41
2022/11/20 00:36:35;;;;;;;13.27;6.15;;;-1.80;99.90;;;;;;5059217;28;20047;-43
2022/11/20 00:39:01;;;;;;;12.10;5.68;;;-1.90;99.90;;;;;;5057766;28;20471;-44
2022/11/20 00:41:28;;;;;;;13.30;5.50;;;-1.90;99.90;;;;;;5062620;28;20041;-44
2022/11/20 00:43:55;;;;;;;11.77;5.20;;;-1.90;99.90;;;;;;5054940;28;20072;-38
2022/11/20 00:46:23;;;;;;;10.00;5.38;;;-1.90;99.90;;;;;;5060608;28;20122;-45
2022/11/20 00:48:49;;;;;;;9.63;4.95;;;-1.90;99.90;;;;;;5059967;28;20037;-41
2022/11/20 00:51:17;;;;;;;13.05;6.07;;;-1.90;99.90;;;;;;5056973;28;20824;-46
2022/11/20 00:53:43;;;;;;;15.38;6.80;;;-1.90;99.90;;;;;;5061322;28;20051;-43
2022/11/20 00:56:12;;;;;;;16.35;7.32;;;-1.90;99.90;;;;;;5064793;28;20037;-43
2022/11/20 00:58:40;;;;;;;14.75;7.22;;;-1.90;99.90;;;;;;5056884;28;20481;-43
2022/11/20 01:01:11;;;;;;;19.02;7.20;;;-1.90;99.90;;;;;;5060052;28;20064;-41
2022/11/20 01:03:40;;;;;;;14.52;6.28;;;-1.90;99.90;;;;;;5058450;28;20069;-43
2022/11/20 01:06:11;;;;;;;16.05;7.57;;;-1.90;99.90;;;;;;5064276;28;20074;-44
2022/11/20 01:08:37;;;;;;;12.50;6.23;;;-1.90;99.90;;;;;;5056667;28;20087;-42
2022/11/20 01:11:08;;;;;;;13.05;6.40;;;-1.90;99.90;;;;;;5061171;28;20032;-43
2022/11/20 01:13:37;;;;;;;12.43;6.30;;;-1.90;99.90;;;;;;5061036;28;20078;-43
2022/11/20 01:16:15;;;;;;;13.23;6.55;;;-1.90;99.90;;;;;;5066772;28;20123;-43
2022/11/20 01:18:44;;;;;;;13.13;6.40;;;-1.90;99.90;;;;;;5058421;28;20044;-40
2022/11/20 01:21:33;;;;;;;14.48;6.47;;;-2.00;99.90;;;;;;5059047;28;20041;-41
2022/11/20 01:24:00;;;;;;;14.70;6.82;;;-2.00;99.90;;;;;;5054165;28;20696;-42
2022/11/20 01:26:29;;;;;;;11.10;6.30;;;-2.00;99.90;;;;;;5062764;28;20041;-41
2022/11/20 01:28:55;;;;;;;14.18;6.53;;;-2.10;99.90;;;;;;5050679;28;20043;-42
2022/11/20 01:31:27;;;;;;;14.85;7.65;;;-2.20;99.90;;;;;;5054475;28;20179;-40
2022/11/20 01:33:55;;;;;;;11.57;6.17;;;-2.20;99.90;;;;;;5060505;28;20037;-46
2022/11/20 01:36:23;;;;;;;13.90;7.15;;;-2.20;99.90;;;;;;5061237;28;20508;-42
2022/11/20 01:38:53;;;;;;;13.35;5.55;;;-2.30;99.90;;;;;;5056869;28;20063;-42
2022/11/20 01:44:04;;;;;;;11.13;6.13;;;-2.30;99.90;;;;;;5050877;28;20601;-42
2022/11/20 01:46:34;;;;;;;17.08;6.63;;;-2.30;99.90;;;;;;5062181;28;20068;-42
2022/11/20 01:49:04;;;;;;;11.40;6.13;;;-2.30;99.90;;;;;;5061113;28;20044;-44
2022/11/20 01:51:47;;;;;;;12.68;5.68;;;-2.20;99.90;;;;;;5061648;28;20517;-45
2022/11/20 01:54:18;;;;;;;10.25;5.07;;;-2.20;99.90;;;;;;5063812;28;20048;-42
2022/11/20 01:56:47;;;;;;;9.43;5.07;;;-2.20;99.90;;;;;;5071558;28;20040;-39
2022/11/20 01:59:15;;;;;;;13.63;6.10;;;-2.20;99.90;;;;;;5067985;28;20045;-44
2022/11/20 02:01:41;;;;;;;11.27;5.28;;;-2.20;99.90;;;;;;5064350;28;20037;-44
2022/11/20 02:04:08;;;;;;;12.13;6.03;;;-2.20;99.90;;;;;;5061778;28;20056;-44
2022/11/20 02:06:45;;;;;;;11.98;5.93;;;-2.20;99.90;;;;;;5065944;28;20389;-42
2022/11/20 02:09:11;;;;;;;14.85;5.93;;;-2.20;99.90;;;;;;5043184;28;20048;-39
2022/11/20 02:11:37;;;;;;;15.32;5.85;;;-2.20;99.90;;;;;;5046355;28;20398;-43
2022/11/20 02:14:03;;;;;;;11.57;5.15;;;-2.20;99.90;;;;;;5061565;28;20033;-43
2022/11/20 02:16:32;;;;;;;15.77;6.30;;;-2.20;99.90;;;;;;5053674;28;20108;-42
2022/11/20 02:19:01;;;;;;;14.93;6.55;;;-2.20;99.90;;;;;;5067551;28;20390;-41
2022/11/20 02:21:46;;;;;;;12.77;5.07;;;-2.20;99.90;;;;;;5066394;28;20033;-48
2022/11/20 02:24:17;;;;;;;15.02;6.10;;;-2.20;99.90;;;;;;5063553;28;20071;-40
2022/11/20 02:26:53;;;;;;;13.38;6.03;;;-2.20;99.90;;;;;;5065575;28;20600;-43
2022/11/20 02:29:50;;;;;;;12.63;5.35;;;-2.20;99.90;;;;;;5070794;28;20481;-43
2022/11/20 02:32:21;;;;;;;13.77;5.82;;;-2.20;99.90;;;;;;5056333;28;20052;-43
2022/11/20 02:34:47;;;;;;;15.00;6.22;;;-2.20;99.90;;;;;;5057361;28;20043;-40
2022/11/20 02:37:13;;;;;;;10.32;5.18;;;-2.20;99.90;;;;;;5060585;28;20044;-43
2022/11/20 02:39:40;;;;;;;11.15;5.10;;;-2.20;99.90;;;;;;5069533;28;20075;-47
2022/11/20 02:42:05;;;;;;;11.40;5.82;;;-2.20;99.90;;;;;;5067129;28;20111;-42
2022/11/20 02:44:31;;;;;;;9.10;4.90;;;-2.20;99.90;;;;;;5058786;28;20605;-40
2022/11/20 02:46:58;;;;;;;11.05;5.32;;;-2.20;99.90;;;;;;5068239;28;20036;-44
2022/11/20 02:49:24;;;;;;;9.85;5.18;;;-2.20;99.90;;;;;;5064190;28;20036;-41
2022/11/20 02:51:51;;;;;;;12.52;5.82;;;-2.20;99.90;;;;;;5059858;28;20405;-42
2022/11/20 02:54:16;;;;;;;13.70;6.05;;;-2.20;99.90;;;;;;5055232;28;20067;-46
2022/11/20 02:56:42;;;;;;;14.63;6.50;;;-2.30;99.90;;;;;;5065457;28;20040;-41
2022/11/20 02:59:08;;;;;;;10.80;5.47;;;-2.30;99.90;;;;;;5066066;28;20048;-42
2022/11/20 03:01:34;;;;;;;12.52;5.80;;;-2.30;99.90;;;;;;5069594;28;20032;-43
2022/11/20 03:04:00;;;;;;;11.80;5.78;;;-2.30;99.90;;;;;;5060229;28;20040;-41
2022/11/20 03:06:25;;;;;;;12.20;5.75;;;-2.30;99.90;;;;;;5058213;28;20401;-42
2022/11/20 03:08:51;;;;;;;11.27;5.50;;;-2.40;99.90;;;;;;5058402;28;20035;-42
2022/11/20 03:11:17;;;;;;;13.65;5.68;;;-2.40;99.90;;;;;;5065006;28;20052;-44
2022/11/20 03:13:42;;;;;;;12.95;6.10;;;-2.40;99.90;;;;;;5062189;28;20037;-42
2022/11/20 03:16:14;;;;;;;13.55;5.63;;;-2.40;99.90;;;;;;5062341;28;20068;-42
2022/11/20 03:18:41;;;;;;;10.82;5.00;;;-2.40;99.90;;;;;;5060912;28;20457;-41
2022/11/20 03:21:07;;;;;;;14.05;6.35;;;-2.40;99.90;;;;;;5058658;28;20037;-42
2022/11/20 03:23:34;;;;;;;12.30;6.00;;;-2.40;99.90;;;;;;5062367;28;20041;-42
2022/11/20 03:26:18;;;;;;;14.40;5.88;;;-2.40;99.90;;;;;;5061999;28;20036;-43
2022/11/20 03:28:50;;;;;;;11.27;5.35;;;-2.50;99.90;;;;;;5054908;28;20033;-43
2022/11/20 03:31:17;;;;;;;11.32;6.07;;;-2.50;99.90;;;;;;5060498;28;20056;-42
2022/11/20 03:33:43;;;;;;;13.02;5.95;;;-2.50;99.90;;;;;;5054990;28;20072;-40
2022/11/20 03:36:12;;;;;;;14.38;6.47;;;-2.50;99.90;;;;;;5054982;28;20036;-44
2022/11/20 03:38:38;;;;;;;11.68;5.78;;;-2.50;99.90;;;;;;5058497;28;20049;-41
2022/11/20 03:41:06;;;;;;;12.25;5.80;;;-2.50;99.90;;;;;;5062022;28;20665;-42
2022/11/20 03:43:32;;;;;;;13.80;5.53;;;-2.60;99.90;;;;;;5059077;28;20055;-41
2022/11/20 03:45:58;;;;;;;11.85;6.15;;;-2.60;99.90;;;;;;5057218;28;20032;-39
2022/11/20 03:48:25;;;;;;;11.57;5.68;;;-2.60;99.90;;;;;;5057828;28;20048;-39
2022/11/20 03:50:52;;;;;;;12.45;5.72;;;-2.60;99.90;;;;;;5057589;28;20074;-47
2022/11/20 03:53:18;;;;;;;10.70;5.63;;;-2.60;99.90;;;;;;5060818;28;20056;-43
2022/11/20 03:55:44;;;;;;;9.07;4.72;;;-2.70;99.90;;;;;;5056965;28;20413;-40
2022/11/20 03:58:10;;;;;;;11.82;5.47;;;-2.70;99.90;;;;;;5055974;28;20036;-42
2022/11/20 04:00:35;;;;;;;12.32;5.55;;;-2.70;99.90;;;;;;5064323;28;20044;-41
2022/11/20 04:03:02;;;;;;;11.40;5.30;;;-2.70;99.90;;;;;;5055440;28;20044;-39
2022/11/20 04:05:28;;;;;;;11.13;5.38;;;-2.80;99.90;;;;;;5054642;28;20064;-42
2022/11/20 04:07:54;;;;;;;11.82;5.72;;;-2.80;99.90;;;;;;5059329;28;20070;-41
2022/11/20 04:10:20;;;;;;;10.25;4.63;;;-2.80;99.90;;;;;;5057163;28;20441;-43
2022/11/20 04:12:45;;;;;;;11.23;5.18;;;-2.80;99.90;;;;;;5054587;28;20078;-41
2022/11/20 04:15:11;;;;;;;10.70;5.00;;;-2.80;99.90;;;;;;5058925;28;20559;-39
2022/11/20 04:17:37;;;;;;;9.30;4.78;;;-2.80;99.90;;;;;;5058347;28;20089;-41
2022/11/20 04:20:03;;;;;;;13.27;5.50;;;-2.80;99.90;;;;;;5062099;28;20036;-42
2022/11/20 04:22:29;;;;;;;13.32;5.82;;;-2.80;99.90;;;;;;5057678;28;20112;-43
2022/11/20 04:24:54;;;;;;;12.48;6.00;;;-2.80;99.90;;;;;;5057707;28;20490;-46
2022/11/20 04:27:20;;;;;;;11.10;4.88;;;-2.80;99.90;;;;;;5053323;28;20044;-44
2022/11/20 04:29:46;;;;;;;11.15;5.40;;;-2.80;99.90;;;;;;5063240;28;20411;-43
2022/11/20 04:32:11;;;;;;;9.77;5.03;;;-2.80;99.90;;;;;;5051941;28;20049;-45
2022/11/20 04:34:37;;;;;;;10.98;5.13;;;-2.80;99.90;;;;;;5054593;28;20517;-42
2022/11/20 04:37:03;;;;;;;9.02;5.20;;;-2.80;99.90;;;;;;5076381;28;20494;-41
2022/11/20 04:39:29;;;;;;;13.40;5.50;;;-2.80;99.90;;;;;;5062295;28;20404;-39
2022/11/20 04:44:39;;;;;;;11.55;5.88;;;-2.90;99.90;;;;;;5069140;28;20040;-46
2022/11/20 04:47:04;;;;;;;11.18;4.95;;;-2.90;99.90;;;;;;5063994;28;20031;-42
2022/11/20 04:49:31;;;;;;;11.63;5.60;;;-2.90;99.90;;;;;;5067741;28;20444;-39
2022/11/20 04:51:57;;;;;;;10.63;5.47;;;-2.90;99.90;;;;;;5070279;28;20035;-42
2022/11/20 04:54:23;;;;;;;10.35;5.05;;;-2.90;99.90;;;;;;5064440;28;20150;-43
2022/11/20 04:56:50;;;;;;;11.70;5.18;;;-2.90;99.90;;;;;;5063332;28;20482;-41
2022/11/20 04:59:15;;;;;;;11.73;5.00;;;-2.90;99.90;;;;;;5064446;28;20041;-43
2022/11/20 05:01:41;;;;;;;11.32;6.00;;;-3.00;99.90;;;;;;5069503;28;20040;-40
2022/11/20 05:04:07;;;;;;;8.38;4.78;;;-2.90;99.90;;;;;;5068826;28;20099;-39
2022/11/20 05:06:32;;;;;;;15.82;6.78;;;-3.00;99.90;;;;;;5068284;28;20444;-43
2022/11/20 05:08:58;;;;;;;10.32;5.28;;;-3.00;99.90;;;;;;5067496;28;20044;-40
2022/11/20 05:11:24;;;;;;;13.55;5.95;;;-3.00;99.90;;;;;;5070667;28;20040;-39
2022/11/20 05:13:51;;;;;;;13.02;6.32;;;-3.00;99.90;;;;;;5067985;28;20037;-44
2022/11/20 05:16:22;;;;;;;13.40;6.22;;;-3.00;99.90;;;;;;5065696;28;20053;-43
2022/11/20 05:18:49;;;;;;;14.48;6.50;;;-3.00;99.90;;;;;;5069367;28;20036;-42
2022/11/20 05:21:15;;;;;;;15.32;6.68;;;-3.00;99.90;;;;;;5067531;28;20423;-40
2022/11/20 05:23:41;;;;;;;14.98;6.80;;;-3.10;99.90;;;;;;5062391;28;20045;-43
2022/11/20 05:26:13;;;;;;;11.70;5.60;;;-3.10;99.90;;;;;;5062264;28;20371;-39
2022/11/20 05:28:38;;;;;;;12.43;5.20;;;-3.20;99.90;;;;;;5071107;28;20484;-40
2022/11/20 05:31:16;;;;;;;11.40;5.40;;;-3.20;99.90;;;;;;5062901;28;20084;-39
2022/11/20 05:33:43;;;;;;;13.60;6.25;;;-3.20;99.90;;;;;;5063351;28;20515;-41
2022/11/20 05:36:10;;;;;;;15.50;6.38;;;-3.20;99.90;;;;;;5064117;28;20398;-40
2022/11/20 05:38:36;;;;;;;12.23;5.78;;;-3.20;99.90;;;;;;5066748;28;20523;-42
2022/11/20 05:41:17;;;;;;;11.95;5.85;;;-3.20;99.90;;;;;;5064203;28;20033;-41
2022/11/20 05:43:45;;;;;;;12.57;5.78;;;-3.20;99.90;;;;;;5063906;28;20137;-43
2022/11/20 05:46:13;;;;;;;14.40;6.22;;;-3.20;99.90;;;;;;5065985;28;20115;-42
2022/11/20 05:48:41;;;;;;;11.38;5.38;;;-3.10;99.90;;;;;;5060768;28;20518;-42
2022/11/20 05:51:10;;;;;;;10.13;5.03;;;-3.10;99.90;;;;;;5068908;28;20489;-42
2022/11/20 05:53:36;;;;;;;13.15;6.05;;;-3.10;99.90;;;;;;5063482;28;20041;-41
2022/11/20 05:56:05;;;;;;;11.40;5.70;;;-3.10;99.90;;;;;;5066315;28;20040;-43
2022/11/20 05:58:32;;;;;;;13.55;6.50;;;-3.10;99.90;;;;;;5080097;28;20053;-44
2022/11/20 06:01:14;;;;;;;11.57;5.07;;;-3.10;99.90;;;;;;5063214;28;20048;-40
2022/11/20 06:03:47;;;;;;;12.20;4.77;;;-3.10;99.90;;;;;;5065184;28;20123;-43
2022/11/20 06:06:16;;;;;;;11.05;5.55;;;-3.00;99.90;;;;;;5064269;28;20319;-42
2022/11/20 06:08:42;;;;;;;10.70;5.60;;;-3.00;99.90;;;;;;5064499;28;20599;-39
2022/11/20 06:11:10;;;;;;;11.25;5.05;;;-3.00;99.90;;;;;;5067477;28;20048;-43
2022/11/20 06:13:36;;;;;;;15.60;6.50;;;-3.00;99.90;;;;;;5062830;28;20490;-40
2022/11/20 06:16:02;;;;;;;15.13;6.10;;;-3.00;99.90;;;;;;5062624;28;20039;-39
2022/11/20 06:18:29;;;;;;;12.55;5.97;;;-3.10;99.90;;;;;;5060500;28;20040;-40
2022/11/20 06:21:07;;;;;;;11.63;6.22;;;-3.00;99.90;;;;;;5064911;28;20718;-40
2022/11/20 06:23:34;;;;;;;12.90;5.28;;;-3.10;99.90;;;;;;5067136;28;20095;-44
2022/11/20 06:26:05;;;;;;;13.02;5.88;;;-3.10;99.90;;;;;;5067577;28;20040;-40
2022/11/20 06:28:31;;;;;;;14.15;6.32;;;-3.10;99.90;;;;;;5063732;28;20028;-39
2022/11/20 06:30:57;;;;;;;13.63;6.27;;;-3.20;99.90;;;;;;5025852;28;1075325;-42
2022/11/20 06:33:23;;;;;;;13.45;6.03;;;-3.20;99.90;;;;;;5064504;28;20059;-40
2022/11/20 06:35:49;;;;;;;14.85;6.35;;;-3.20;99.90;;;;;;5065701;28;20408;-40
2022/11/20 06:38:15;;;;;;;15.85;7.10;;;-3.30;99.90;;;;;;5068330;28;20044;-39
2022/11/20 06:40:41;;;;;;;14.98;6.95;;;-3.30;99.90;;;;;;5066347;28;20359;-40
2022/11/20 06:43:10;;;;;;;14.38;7.00;;;-3.30;99.90;;;;;;5057310;28;20531;-41
2022/11/20 06:45:36;;;;;;;13.65;7.05;;;-3.30;99.90;;;;;;5064874;28;20120;-39
2022/11/20 06:48:03;;;;;;;12.30;5.85;;;-3.30;99.90;;;;;;5061567;28;20120;-41
2022/11/20 06:50:29;;;;;;;12.07;5.70;;;-3.30;99.90;;;;;;5062266;28;20099;-42
2022/11/20 06:52:54;;;;;;;13.20;6.10;;;-3.30;99.90;;;;;;5067616;28;20083;-41
2022/11/20 06:55:20;;;;;;;11.70;5.88;;;-3.20;99.90;;;;;;5068507;28;20044;-39
2022/11/20 06:57:46;;;;;;;13.75;6.15;;;-3.20;99.90;;;;;;5069200;28;20120;-37
2022/11/20 07:00:12;;;;;;;13.30;5.78;;;-3.20;99.90;;;;;;5061120;28;20042;-39
2022/11/20 07:02:38;;;;;;;12.98;5.97;;;-3.20;99.90;;;;;;5059731;28;20242;-39
2022/11/20 07:05:03;;;;;;;13.52;6.20;;;-3.20;99.90;;;;;;5066212;28;20499;-39
2022/11/20 07:07:29;;;;;;;16.52;6.82;;;-3.20;99.90;;;;;;5057536;28;20119;-39
2022/11/20 07:09:55;;;;;;;12.98;5.30;;;-3.20;99.90;;;;;;5058797;28;20398;-39
2022/11/20 07:12:20;;;;;;;12.10;6.38;;;-3.20;99.90;;;;;;5057549;28;20040;-42
2022/11/20 07:14:46;;;;;;;13.07;6.00;;;-3.10;99.90;;;;;;5061262;28;20162;-39
2022/11/20 07:17:12;;;;;;;13.05;6.28;;;-3.10;99.90;;;;;;5062021;28;20059;-41
2022/11/20 07:19:38;;;;;;;15.20;7.10;;;-3.10;99.90;;;;;;5062782;28;20624;-42
2022/11/20 07:22:03;;;;;;;14.35;6.75;;;-3.10;99.90;;;;;;5061387;28;20116;-42
2022/11/20 07:24:29;;;;;;;10.57;5.60;;;-3.20;99.90;;;;;;5059477;28;20044;-36
2022/11/20 07:26:54;;;;;;;13.18;6.40;;;-3.20;99.90;;;;;;5057555;28;20045;-37
2022/11/20 07:29:20;;;;;;;12.95;5.75;;;-3.20;99.90;;;;;;5064999;28;20083;-38
2022/11/20 07:31:46;;;;;;;14.77;7.00;;;-3.10;99.90;;;;;;5056520;28;20079;-38
2022/11/20 07:34:11;;;;;;;14.73;6.65;;;-3.10;99.90;;;;;;5058197;28;20059;-37
2022/11/20 07:36:37;;;;;;;12.85;5.72;;;-3.10;99.90;;;;;;5065472;28;20040;-37
2022/11/20 07:39:03;;;;;;;10.40;5.13;;;-3.10;99.90;;;;;;5062922;28;20540;-37
2022/11/20 07:41:29;;;;;;;14.02;5.93;;;-3.20;99.90;;;;;;5062775;28;20033;-37
2022/11/20 07:43:54;;;;;;;13.07;5.82;;;-3.10;99.90;;;;;;5057541;28;20037;-37
2022/11/20 07:46:20;;;;;;;13.82;6.60;;;-3.10;99.90;;;;;;5064018;28;20044;-37
2022/11/20 07:48:45;;;;;;;14.23;6.88;;;-3.10;99.90;;;;;;5055814;28;20041;-40
2022/11/20 07:51:11;;;;;;;14.50;7.05;;;-3.10;99.90;;;;;;5055447;28;20398;-37
2022/11/20 07:53:37;;;;;;;14.80;6.20;;;-3.00;99.90;;;;;;5056451;28;20076;-37
2022/11/20 07:56:03;;;;;;;13.02;6.15;;;-3.00;99.90;;;;;;5057171;28;20497;-37
2022/11/20 07:58:29;;;;;;;14.18;6.25;;;-3.00;99.90;;;;;;5059939;28;20076;-38
2022/11/20 08:00:56;;;;;;;13.73;6.25;;;-3.00;99.90;;;;;;5055980;28;20051;-39
2022/11/20 08:03:21;;;;;;;11.35;5.35;;;-2.90;99.90;;;;;;5060886;28;20090;-37
2022/11/20 08:05:47;;;;;;;12.73;5.82;;;-2.80;99.90;;;;;;5057954;28;20074;-38
2022/11/20 08:08:12;;;;;;;13.82;6.50;;;-2.80;99.90;;;;;;5057283;28;20043;-38
2022/11/20 08:10:38;;;;;;;14.13;5.72;;;-2.70;99.90;;;;;;5061417;28;20037;-37
2022/11/20 08:15:52;;;;;;;12.57;5.78;;;-2.60;99.90;;;;;;5055771;28;20052;-38
2022/11/20 08:18:18;;;;;;;10.75;5.65;;;-2.50;99.90;;;;;;5059202;28;20805;-39
2022/11/20 08:20:44;;;;;;;12.18;5.70;;;-2.50;99.90;;;;;;5060155;28;20071;-37
2022/11/20 08:23:10;;;;;;;13.27;7.20;;;-2.40;99.90;;;;;;5062680;28;20051;-37
2022/11/20 08:25:37;;;;;;;13.85;6.35;;;-2.30;99.90;;;;;;5061269;28;20041;-38
2022/11/20 08:28:05;;;;;;;12.10;6.07;;;-2.30;99.90;;;;;;5060870;28;20040;-37
2022/11/20 08:30:32;;;;;;;12.75;6.18;;;-2.20;99.90;;;;;;5062824;28;20045;-38
2022/11/20 08:33:03;;;;;;;17.45;7.38;;;-2.20;99.90;;;;;;5063079;28;20482;-39
2022/11/20 08:35:32;;;;;;;12.13;5.53;;;-2.10;99.90;;;;;;5059890;28;20549;-37
2022/11/20 08:37:57;;;;;;;12.68;6.13;;;-2.10;99.90;;;;;;5065304;28;20103;-37
2022/11/20 08:40:23;;;;;;;14.60;6.15;;;-2.00;99.90;;;;;;5066527;28;20040;-38
2022/11/20 08:42:50;;;;;;;14.38;6.03;;;-2.00;99.90;;;;;;5059659;28;20032;-38
2022/11/20 08:45:17;;;;;;;14.48;7.00;;;-1.90;99.90;;;;;;5059715;28;20099;-38
2022/11/20 08:47:43;;;;;;;16.95;6.50;;;-1.90;99.90;;;;;;5055922;28;20040;-38
2022/11/20 08:50:10;;;;;;;14.55;6.85;;;-1.80;99.90;;;;;;5068020;28;20063;-39
2022/11/20 08:52:37;;;;;;;14.45;6.55;;;-1.80;99.90;;;;;;5058641;28;20587;-38
2022/11/20 08:55:04;;;;;;;16.45;7.45;;;-1.70;99.90;;;;;;5052769;28;20484;-38
2022/11/20 08:57:32;;;;;;;14.50;7.22;;;-1.70;99.90;;;;;;5053644;28;20094;-38
2022/11/20 08:59:58;;;;;;;12.55;7.00;;;-1.60;99.90;;;;;;5050528;28;20047;-38
2022/11/20 09:02:24;;;;;;;13.48;6.53;;;-1.50;99.90;;;;;;5054731;28;20033;-39
2022/11/20 09:04:50;;;;;;;15.30;7.25;;;-1.50;99.90;;;;;;5058938;28;20528;-37
2022/11/20 09:07:16;;;;;;;13.75;6.57;;;-1.40;99.90;;;;;;5061363;28;20041;-38
2022/11/20 09:09:41;;;;;;;14.52;7.32;;;-1.40;99.90;;;;;;5052511;28;20045;-38
2022/11/20 09:12:07;;;;;;;12.40;6.13;;;-1.30;99.90;;;;;;5052465;28;20063;-38
2022/11/20 09:14:33;;;;;;;12.63;6.07;;;-1.20;99.90;;;;;;5066232;28;20044;-38
2022/11/20 09:16:59;;;;;;;13.98;7.03;;;-1.10;99.90;;;;;;5061095;28;20111;-46
2022/11/20 09:19:25;;;;;;;14.05;7.00;;;-1.00;99.90;;;;;;5060626;28;20037;-41
2022/11/20 09:21:51;;;;;;;14.93;7.28;;;-1.00;99.90;;;;;;5061591;28;20384;-42
2022/11/20 09:24:17;;;;;;;14.95;7.25;;;-1.00;99.90;;;;;;5053681;28;20040;-40
2022/11/20 09:26:43;;;;;;;13.45;6.53;;;-0.90;99.90;;;;;;5054047;28;20502;-40
2022/11/20 09:29:09;;;;;;;16.48;7.25;;;-0.90;99.90;;;;;;5058310;28;20028;-46
2022/11/20 09:31:35;;;;;;;14.07;7.22;;;-0.90;99.90;;;;;;5054974;28;20048;-45
2022/11/20 09:34:00;;;;;;;14.95;7.45;;;-0.80;99.90;;;;;;5066145;28;20417;-38
2022/11/20 09:36:26;;;;;;;13.68;7.30;;;-0.70;99.90;;;;;;5056848;28;20114;-40
2022/11/20 09:38:52;;;;;;;15.45;7.07;;;-0.70;99.90;;;;;;5059459;28;20048;-41
2022/11/20 09:41:42;;;;;;;13.15;6.07;;;-0.60;99.90;;;;;;5065101;28;20119;-47
2022/11/20 09:44:38;;;;;;;14.77;6.72;;;-0.50;99.90;;;;;;5058501;28;20047;-41
2022/11/20 09:47:32;;;;;;;15.77;6.80;;;-0.50;99.90;;;;;;5059454;28;20094;-42
2022/11/20 09:50:05;;;;;;;14.20;6.85;;;-0.40;99.90;;;;;;5072425;28;20417;-41
2022/11/20 09:52:42;;;;;;;13.27;7.03;;;-0.40;99.90;;;;;;5056290;28;20048;-39
2022/11/20 09:55:12;;;;;;;11.35;5.22;;;-0.30;99.90;;;;;;5058313;28;20066;-40
2022/11/20 09:57:43;;;;;;;13.77;6.82;;;-0.20;99.90;;;;;;5061600;28;20040;-40
2022/11/20 10:00:14;;;;;;;15.10;6.38;;;-0.10;99.90;;;;;;5058846;28;20055;-40
2022/11/20 10:03:01;;;;;;;13.30;6.70;;;0.00;99.90;;;;;;5061564;28;20501;-42
2022/11/20 10:05:29;;;;;;;15.82;6.75;;;0.10;99.90;;;;;;5059892;28;20079;-39
2022/11/20 10:08:35;;;;;;;13.43;6.65;;;0.10;99.90;;;;;;5059785;28;20060;-39
2022/11/20 10:11:01;;;;;;;11.13;5.47;;;0.20;99.90;;;;;;5059834;28;20036;-40
2022/11/20 10:13:48;;;;;;;13.45;6.13;;;0.30;99.90;;;;;;5063498;28;20486;-41
2022/11/20 10:16:22;;;;;;;10.38;5.03;;;0.50;99.90;;;;;;5054114;28;20041;-39
2022/11/20 10:19:12;;;;;;;11.52;5.43;;;0.60;99.90;;;;;;5056177;28;20493;-40
2022/11/20 10:22:15;;;;;;;12.50;6.30;;;0.70;99.90;;;;;;5065378;28;20044;-40
2022/11/20 10:24:48;;;;;;;12.48;6.13;;;0.90;99.90;;;;;;5057767;28;20098;-40
2022/11/20 10:27:35;;;;;;;11.05;5.30;;;1.10;99.90;;;;;;5057032;28;20071;-39
2022/11/20 10:30:10;;;;;;;11.45;5.57;;;1.20;99.90;;;;;;5056956;28;20060;-38
2022/11/20 10:32:48;;;;;;;11.23;5.80;;;1.30;99.90;;;;;;5055971;28;20438;-37
2022/11/20 10:35:13;;;;;;;9.95;5.60;;;1.50;99.90;;;;;;5058924;28;20595;-39
2022/11/20 10:37:42;;;;;;;11.70;5.85;;;1.70;99.90;;;;;;5053360;28;20053;-38
2022/11/20 10:40:17;;;;;;;12.15;5.93;;;1.80;99.90;;;;;;5060663;28;20072;-40
2022/11/20 10:42:46;;;;;;;11.68;5.60;;;1.80;99.80;;;;;;5059082;28;21442;-40
2022/11/20 10:45:23;;;;;;;11.68;5.20;;;1.80;98.50;;;;;;5076800;28;20043;-43
2022/11/20 10:48:09;;;;;;;8.68;4.38;;;1.70;98.20;;;;;;5046777;28;20486;-45
2022/11/20 10:50:40;;;;;;;12.45;5.57;;;1.70;98.00;;;;;;5057330;28;20033;-43
2022/11/20 10:53:21;;;;;;;10.20;5.20;;;1.70;98.70;;;;;;5052392;28;20520;-44
2022/11/20 10:55:55;;;;;;;10.43;4.97;;;1.70;98.90;;;;;;5069751;28;20404;-44
2022/11/20 10:58:49;;;;;;;10.05;5.32;;;1.70;98.90;;;;;;5046259;28;20616;-37
2022/11/20 11:01:23;;;;;;;9.32;4.75;;;1.70;98.80;;;;;;5055786;28;20041;-39
2022/11/20 11:03:52;;;;;;;10.52;4.43;;;1.70;99.00;;;;;;5061877;28;20076;-37
2022/11/20 11:06:31;;;;;;;9.68;4.50;;;1.70;99.20;;;;;;5056969;28;20060;-38
2022/11/20 11:09:03;;;;;;;9.93;5.00;;;1.80;99.20;;;;;;5050345;28;20812;-37
2022/11/20 11:11:33;;;;;;;9.63;4.68;;;1.80;99.30;;;;;;5055147;28;20052;-37
2022/11/20 11:14:13;;;;;;;13.45;5.55;;;1.90;98.90;;;;;;5051557;28;20619;-37
2022/11/20 11:16:51;;;;;;;10.10;4.68;;;1.90;98.40;;;;;;5048478;28;20072;-37
2022/11/20 11:19:16;;;;;;;9.68;5.07;;;2.00;98.50;;;;;;5051771;28;20044;-38
2022/11/20 11:21:52;;;;;;;9.48;5.25;;;2.10;98.40;;;;;;5046998;28;21741;-39
2022/11/20 11:24:22;;;;;;;9.88;5.13;;;2.20;98.00;;;;;;5048440;28;20044;-40
2022/11/20 11:26:56;;;;;;;8.02;4.22;;;2.50;97.50;;;;;;5048251;28;20041;-39
2022/11/20 11:29:21;;;;;;;10.13;5.03;;;2.90;97.10;;;;;;5059924;28;20040;-40
2022/11/20 11:31:47;;;;;;;12.30;5.40;;;3.20;96.20;;;;;;5053140;28;20054;-40
2022/11/20 11:34:14;;;;;;;8.07;4.32;;;3.50;95.90;;;;;;5046240;28;20128;-42
2022/11/20 11:36:41;;;;;;;8.30;4.90;;;3.90;95.20;;;;;;5047725;28;20094;-41
2022/11/20 11:39:28;;;;;;;9.52;4.70;;;4.10;94.50;;;;;;5046628;28;20496;-41
2022/11/20 11:41:54;;;;;;;9.02;5.10;;;4.40;93.60;;;;;;5055411;28;20036;-40
2022/11/20 11:47:30;;;;;;;10.02;5.60;;;5.30;92.60;;;;;;5054751;28;20048;-37
2022/11/20 11:50:09;;;;;;;10.05;4.85;;;5.60;91.70;;;;;;5055350;28;20181;-36
2022/11/20 11:52:53;;;;;;;9.63;4.88;;;5.30;90.50;;;;;;5055262;28;20545;-37
2022/11/20 11:55:28;;;;;;;10.00;4.90;;;4.90;91.40;;;;;;5048346;28;20049;-37
2022/11/20 11:58:36;;;;;;;12.05;5.85;;;4.40;92.00;;;;;;5046964;28;20044;-37
2022/11/20 12:01:27;;;;;;;11.02;5.47;;;4.20;92.40;;;;;;5039972;28;20040;-38
2022/11/20 12:04:31;;;;;;;9.35;4.90;;;3.90;92.70;;;;;;5052643;28;20544;-38
2022/11/20 12:07:13;;;;;;;10.52;5.30;;;3.70;93.10;;;;;;5037616;28;20048;-37
2022/11/20 12:09:50;;;;;;;10.02;5.20;;;3.50;93.20;;;;;;5057542;28;20097;-37
2022/11/20 12:12:22;;;;;;;9.60;4.85;;;3.40;93.50;;;;;;5051945;28;20036;-38
2022/11/20 12:14:50;;;;;;;9.73;4.95;;;3.30;93.50;;;;;;5054234;28;20082;-39
2022/11/20 12:17:17;;;;;;;9.65;4.53;;;3.20;93.70;;;;;;5053029;28;20532;-38
2022/11/20 12:19:43;;;;;;;9.85;5.20;;;3.20;93.80;;;;;;5061087;28;20048;-37
2022/11/20 12:22:41;;;;;;;10.90;5.85;;;3.10;94.10;;;;;;5052692;28;20040;-41
2022/11/20 12:25:12;;;;;;;11.05;5.38;;;3.00;94.10;;;;;;5009393;28;20092;-40
2022/11/20 12:27:51;;;;;;;10.60;5.60;;;3.00;94.40;;;;;;5055320;28;20094;-37
2022/11/20 12:30:18;;;;;;;11.05;5.00;;;2.90;94.60;;;;;;5057055;28;20053;-36
2022/11/20 12:33:03;;;;;;;11.55;5.57;;;2.90;94.60;;;;;;5051156;28;20830;-38
2022/11/20 12:35:44;;;;;;;10.93;5.32;;;2.90;94.90;;;;;;5050540;28;20052;-36
2022/11/20 12:38:29;;;;;;;12.75;5.38;;;2.80;95.00;;;;;;5053444;28;20056;-38
2022/11/20 12:45:08;;;;;;;10.93;5.78;;;2.80;95.40;;;;;;5053899;28;20033;-36
2022/11/20 12:45:09;;;;;;;11.05;5.50;;;2.90;95.40;;;;;;5051752;28;20045;-37
2022/11/20 12:47:59;;;;;;;10.40;5.20;;;2.80;95.50;;;;;;5036939;28;20036;-39
2022/11/20 12:50:44;;;;;;;10.00;5.18;;;2.80;95.50;;;;;;5058875;28;20506;-36
2022/11/20 12:53:43;;;;;;;10.77;5.47;;;2.80;95.40;;;;;;5056469;28;20036;-37
2022/11/20 12:56:24;;;;;;;10.82;5.07;;;2.80;95.40;;;;;;5055066;28;20130;-38
2022/11/20 12:59:09;;;;;;;11.43;5.40;;;2.90;95.60;;;;;;5058810;28;20358;-36
2022/11/20 13:01:55;;;;;;;10.55;5.40;;;2.90;95.50;;;;;;5057905;28;20059;-37
2022/11/20 13:04:36;;;;;;;11.73;5.95;;;3.00;95.40;;;;;;5059270;28;20040;-36
2022/11/20 13:07:09;;;;;;;12.95;5.45;;;3.20;95.50;;;;;;5056138;28;20082;-37